sensor_id;sensor_type;location;lat;lon;timestamp;P1;durP1;ratioP1;P2;durP2;ratioP2
49488;SDS011;35382;51.484;11.476;2023-04-02T00:00:27;16.70;;;11.50;;
49488;SDS011;35382;51.484;11.476;2023-04-02T00:02:24;18.20;;;12.50;;
49488;SDS011;35382;51.484;11.476;2023-04-02T00:04:10;17.52;;;11.77;;
49488;SDS011;35382;51.484;11.476;2023-04-02T00:05:53;18.13;;;12.88;;
49488;SDS011;35382;51.484;11.476;2023-04-02T00:07:35;19.27;;;13.18;;
49488;SDS011;35382;51.484;11.476;2023-04-02T00:09:21;19.10;;;13.60;;
49488;SDS011;35382;51.484;11.476;2023-04-02T00:11:09;17.13;;;12.32;;
49488;SDS011;35382;51.484;11.476;2023-04-02T00:12:58;18.90;;;12.95;;
49488;SDS011;35382;51.484;11.476;2023-04-02T00:14:44;16.73;;;12.25;;
49488;SDS011;35382;51.484;11.476;2023-04-02T00:16:27;16.70;;;11.88;;
49488;SDS011;35382;51.484;11.476;2023-04-02T00:18:12;16.40;;;11.68;;
49488;SDS011;35382;51.484;11.476;2023-04-02T00:19:57;16.17;;;11.57;;
49488;SDS011;35382;51.484;11.476;2023-04-02T00:21:41;16.95;;;11.48;;
49488;SDS011;35382;51.484;11.476;2023-04-02T00:23:25;14.98;;;11.23;;
49488;SDS011;35382;51.484;11.476;2023-04-02T00:25:07;14.30;;;9.90;;
49488;SDS011;35382;51.484;11.476;2023-04-02T00:26:53;15.02;;;10.07;;
49488;SDS011;35382;51.484;11.476;2023-04-02T00:28:35;13.68;;;9.40;;
49488;SDS011;35382;51.484;11.476;2023-04-02T00:30:16;13.55;;;9.15;;
49488;SDS011;35382;51.484;11.476;2023-04-02T00:31:58;14.68;;;9.82;;
49488;SDS011;35382;51.484;11.476;2023-04-02T00:33:41;14.93;;;9.15;;
49488;SDS011;35382;51.484;11.476;2023-04-02T00:35:24;13.98;;;9.60;;
49488;SDS011;35382;51.484;11.476;2023-04-02T00:37:09;12.93;;;8.88;;
49488;SDS011;35382;51.484;11.476;2023-04-02T00:39:06;11.88;;;8.85;;
49488;SDS011;35382;51.484;11.476;2023-04-02T00:40:53;13.95;;;9.43;;
49488;SDS011;35382;51.484;11.476;2023-04-02T00:42:37;14.38;;;8.85;;
49488;SDS011;35382;51.484;11.476;2023-04-02T00:44:19;15.27;;;9.30;;
49488;SDS011;35382;51.484;11.476;2023-04-02T00:46:02;13.70;;;9.43;;
49488;SDS011;35382;51.484;11.476;2023-04-02T00:47:50;15.05;;;9.60;;
49488;SDS011;35382;51.484;11.476;2023-04-02T00:49:35;15.07;;;9.48;;
49488;SDS011;35382;51.484;11.476;2023-04-02T00:51:23;15.15;;;10.07;;
49488;SDS011;35382;51.484;11.476;2023-04-02T00:53:12;15.43;;;9.27;;
49488;SDS011;35382;51.484;11.476;2023-04-02T00:56:53;13.82;;;9.93;;
49488;SDS011;35382;51.484;11.476;2023-04-02T00:58:36;14.65;;;10.52;;
49488;SDS011;35382;51.484;11.476;2023-04-02T01:03:58;21.05;;;13.50;;
49488;SDS011;35382;51.484;11.476;2023-04-02T01:05:41;20.10;;;13.02;;
49488;SDS011;35382;51.484;11.476;2023-04-02T01:09:48;20.88;;;13.23;;
49488;SDS011;35382;51.484;11.476;2023-04-02T01:14:02;25.27;;;15.85;;
49488;SDS011;35382;51.484;11.476;2023-04-02T01:23:40;29.35;;;17.45;;
49488;SDS011;35382;51.484;11.476;2023-04-02T01:25:29;25.23;;;16.33;;
49488;SDS011;35382;51.484;11.476;2023-04-02T01:27:31;24.77;;;16.17;;
49488;SDS011;35382;51.484;11.476;2023-04-02T01:29:20;28.00;;;16.25;;
49488;SDS011;35382;51.484;11.476;2023-04-02T01:31:16;27.15;;;17.13;;
49488;SDS011;35382;51.484;11.476;2023-04-02T01:32:58;23.75;;;16.33;;
49488;SDS011;35382;51.484;11.476;2023-04-02T01:34:39;24.05;;;15.98;;
49488;SDS011;35382;51.484;11.476;2023-04-02T01:38:12;27.60;;;17.70;;
49488;SDS011;35382;51.484;11.476;2023-04-02T01:42:12;22.45;;;14.57;;
49488;SDS011;35382;51.484;11.476;2023-04-02T01:44:07;23.02;;;14.88;;
49488;SDS011;35382;51.484;11.476;2023-04-02T01:45:51;23.15;;;15.05;;
49488;SDS011;35382;51.484;11.476;2023-04-02T01:47:32;23.23;;;14.57;;
49488;SDS011;35382;51.484;11.476;2023-04-02T01:49:14;23.95;;;14.68;;
49488;SDS011;35382;51.484;11.476;2023-04-02T01:50:58;21.33;;;13.60;;
49488;SDS011;35382;51.484;11.476;2023-04-02T01:52:42;19.48;;;13.25;;
49488;SDS011;35382;51.484;11.476;2023-04-02T01:54:27;24.17;;;14.27;;
49488;SDS011;35382;51.484;11.476;2023-04-02T01:56:08;23.67;;;14.68;;
49488;SDS011;35382;51.484;11.476;2023-04-02T01:57:49;21.20;;;13.93;;
49488;SDS011;35382;51.484;11.476;2023-04-02T01:59:33;19.80;;;12.60;;
49488;SDS011;35382;51.484;11.476;2023-04-02T02:01:18;20.67;;;13.23;;
49488;SDS011;35382;51.484;11.476;2023-04-02T02:03:04;21.48;;;13.93;;
49488;SDS011;35382;51.484;11.476;2023-04-02T02:04:46;21.30;;;12.80;;
49488;SDS011;35382;51.484;11.476;2023-04-02T02:06:27;21.10;;;13.30;;
49488;SDS011;35382;51.484;11.476;2023-04-02T02:08:14;18.05;;;12.20;;
49488;SDS011;35382;51.484;11.476;2023-04-02T02:10:03;22.35;;;13.70;;
49488;SDS011;35382;51.484;11.476;2023-04-02T02:11:45;25.38;;;14.88;;
49488;SDS011;35382;51.484;11.476;2023-04-02T02:13:26;24.90;;;14.82;;
49488;SDS011;35382;51.484;11.476;2023-04-02T02:15:12;26.27;;;14.30;;
49488;SDS011;35382;51.484;11.476;2023-04-02T02:16:59;22.63;;;13.77;;
49488;SDS011;35382;51.484;11.476;2023-04-02T02:18:42;21.60;;;14.93;;
49488;SDS011;35382;51.484;11.476;2023-04-02T02:20:28;23.10;;;14.95;;
49488;SDS011;35382;51.484;11.476;2023-04-02T02:24:28;19.67;;;12.93;;
49488;SDS011;35382;51.484;11.476;2023-04-02T02:26:11;22.00;;;13.75;;
49488;SDS011;35382;51.484;11.476;2023-04-02T02:28:05;22.33;;;14.90;;
49488;SDS011;35382;51.484;11.476;2023-04-02T02:29:57;23.85;;;14.40;;
49488;SDS011;35382;51.484;11.476;2023-04-02T02:31:51;24.48;;;15.13;;
49488;SDS011;35382;51.484;11.476;2023-04-02T02:33:38;25.77;;;15.50;;
49488;SDS011;35382;51.484;11.476;2023-04-02T02:37:37;22.58;;;14.93;;
49488;SDS011;35382;51.484;11.476;2023-04-02T02:39:29;23.40;;;14.85;;
49488;SDS011;35382;51.484;11.476;2023-04-02T02:41:26;25.38;;;15.95;;
49488;SDS011;35382;51.484;11.476;2023-04-02T02:43:13;25.13;;;15.50;;
49488;SDS011;35382;51.484;11.476;2023-04-02T02:44:57;22.98;;;15.10;;
49488;SDS011;35382;51.484;11.476;2023-04-02T02:46:42;25.25;;;15.77;;
49488;SDS011;35382;51.484;11.476;2023-04-02T02:48:31;26.15;;;15.80;;
49488;SDS011;35382;51.484;11.476;2023-04-02T02:50:18;23.80;;;15.68;;
49488;SDS011;35382;51.484;11.476;2023-04-02T02:52:12;24.65;;;15.65;;
49488;SDS011;35382;51.484;11.476;2023-04-02T02:54:03;24.10;;;15.23;;
49488;SDS011;35382;51.484;11.476;2023-04-02T02:55:48;25.40;;;15.93;;
49488;SDS011;35382;51.484;11.476;2023-04-02T02:57:39;24.95;;;15.68;;
49488;SDS011;35382;51.484;11.476;2023-04-02T02:59:34;25.05;;;16.35;;
49488;SDS011;35382;51.484;11.476;2023-04-02T03:01:17;28.45;;;16.58;;
49488;SDS011;35382;51.484;11.476;2023-04-02T03:02:58;29.65;;;17.40;;
49488;SDS011;35382;51.484;11.476;2023-04-02T03:04:45;27.10;;;16.50;;
49488;SDS011;35382;51.484;11.476;2023-04-02T03:06:29;25.83;;;16.42;;
49488;SDS011;35382;51.484;11.476;2023-04-02T03:08:14;26.90;;;16.30;;
49488;SDS011;35382;51.484;11.476;2023-04-02T03:10:14;25.60;;;16.27;;
49488;SDS011;35382;51.484;11.476;2023-04-02T03:12:08;25.20;;;15.77;;
49488;SDS011;35382;51.484;11.476;2023-04-02T03:13:52;26.48;;;16.10;;
49488;SDS011;35382;51.484;11.476;2023-04-02T03:17:56;32.22;;;17.77;;
49488;SDS011;35382;51.484;11.476;2023-04-02T03:19:46;28.92;;;19.27;;
49488;SDS011;35382;51.484;11.476;2023-04-02T03:23:56;32.63;;;19.63;;
49488;SDS011;35382;51.484;11.476;2023-04-02T03:27:25;29.52;;;16.83;;
49488;SDS011;35382;51.484;11.476;2023-04-02T03:29:15;30.48;;;19.33;;
49488;SDS011;35382;51.484;11.476;2023-04-02T03:30:59;28.90;;;17.73;;
49488;SDS011;35382;51.484;11.476;2023-04-02T03:32:50;29.00;;;17.13;;
49488;SDS011;35382;51.484;11.476;2023-04-02T03:34:39;31.17;;;20.13;;
49488;SDS011;35382;51.484;11.476;2023-04-02T03:36:27;33.38;;;20.08;;
49488;SDS011;35382;51.484;11.476;2023-04-02T03:38:15;33.13;;;19.10;;
49488;SDS011;35382;51.484;11.476;2023-04-02T03:40:13;30.50;;;18.08;;
49488;SDS011;35382;51.484;11.476;2023-04-02T03:42:06;29.52;;;18.60;;
49488;SDS011;35382;51.484;11.476;2023-04-02T03:43:54;32.70;;;19.23;;
49488;SDS011;35382;51.484;11.476;2023-04-02T03:45:41;31.08;;;18.90;;
49488;SDS011;35382;51.484;11.476;2023-04-02T03:47:29;27.83;;;17.40;;
49488;SDS011;35382;51.484;11.476;2023-04-02T03:49:22;28.08;;;16.77;;
49488;SDS011;35382;51.484;11.476;2023-04-02T03:53:04;29.02;;;16.25;;
49488;SDS011;35382;51.484;11.476;2023-04-02T03:54:46;25.55;;;15.73;;
49488;SDS011;35382;51.484;11.476;2023-04-02T03:56:28;27.45;;;15.93;;
49488;SDS011;35382;51.484;11.476;2023-04-02T03:58:23;24.20;;;15.38;;
49488;SDS011;35382;51.484;11.476;2023-04-02T04:02:10;21.10;;;13.48;;
49488;SDS011;35382;51.484;11.476;2023-04-02T04:04:09;24.05;;;14.45;;
49488;SDS011;35382;51.484;11.476;2023-04-02T04:05:59;23.02;;;13.88;;
49488;SDS011;35382;51.484;11.476;2023-04-02T04:07:45;20.70;;;13.23;;
49488;SDS011;35382;51.484;11.476;2023-04-02T04:09:36;22.33;;;13.30;;
49488;SDS011;35382;51.484;11.476;2023-04-02T04:11:22;21.33;;;13.25;;
49488;SDS011;35382;51.484;11.476;2023-04-02T04:13:08;24.17;;;14.00;;
49488;SDS011;35382;51.484;11.476;2023-04-02T04:15:05;20.75;;;13.00;;
49488;SDS011;35382;51.484;11.476;2023-04-02T04:18:58;24.48;;;13.75;;
49488;SDS011;35382;51.484;11.476;2023-04-02T04:22:31;21.95;;;14.00;;
49488;SDS011;35382;51.484;11.476;2023-04-02T04:24:25;25.17;;;14.25;;
49488;SDS011;35382;51.484;11.476;2023-04-02T04:30:29;18.45;;;12.07;;
49488;SDS011;35382;51.484;11.476;2023-04-02T04:32:33;18.00;;;11.63;;
49488;SDS011;35382;51.484;11.476;2023-04-02T04:34:29;18.52;;;12.35;;
49488;SDS011;35382;51.484;11.476;2023-04-02T04:36:23;20.52;;;11.95;;
49488;SDS011;35382;51.484;11.476;2023-04-02T04:38:18;19.33;;;12.77;;
49488;SDS011;35382;51.484;11.476;2023-04-02T04:40:18;18.15;;;11.57;;
49488;SDS011;35382;51.484;11.476;2023-04-02T04:42:04;20.58;;;12.25;;
49488;SDS011;35382;51.484;11.476;2023-04-02T04:43:48;21.05;;;12.50;;
49488;SDS011;35382;51.484;11.476;2023-04-02T04:45:46;23.95;;;14.20;;
49488;SDS011;35382;51.484;11.476;2023-04-02T04:47:35;23.25;;;12.98;;
49488;SDS011;35382;51.484;11.476;2023-04-02T04:49:31;19.73;;;13.50;;
49488;SDS011;35382;51.484;11.476;2023-04-02T04:53:04;21.02;;;13.55;;
49488;SDS011;35382;51.484;11.476;2023-04-02T04:54:53;21.95;;;13.73;;
49488;SDS011;35382;51.484;11.476;2023-04-02T04:56:38;25.08;;;13.60;;
49488;SDS011;35382;51.484;11.476;2023-04-02T04:58:26;23.13;;;15.00;;
49488;SDS011;35382;51.484;11.476;2023-04-02T05:00:17;25.05;;;13.90;;
49488;SDS011;35382;51.484;11.476;2023-04-02T05:02:10;23.13;;;14.68;;
49488;SDS011;35382;51.484;11.476;2023-04-02T05:03:54;27.52;;;15.18;;
49488;SDS011;35382;51.484;11.476;2023-04-02T05:05:41;25.83;;;13.95;;
49488;SDS011;35382;51.484;11.476;2023-04-02T05:07:28;23.02;;;13.23;;
49488;SDS011;35382;51.484;11.476;2023-04-02T05:11:22;20.73;;;12.55;;
49488;SDS011;35382;51.484;11.476;2023-04-02T05:13:13;19.52;;;12.05;;
49488;SDS011;35382;51.484;11.476;2023-04-02T05:15:09;20.60;;;12.93;;
49488;SDS011;35382;51.484;11.476;2023-04-02T05:17:00;19.27;;;12.02;;
49488;SDS011;35382;51.484;11.476;2023-04-02T05:18:51;22.77;;;12.95;;
49488;SDS011;35382;51.484;11.476;2023-04-02T05:21:02;20.85;;;13.07;;
49488;SDS011;35382;51.484;11.476;2023-04-02T05:22:53;22.90;;;12.23;;
49488;SDS011;35382;51.484;11.476;2023-04-02T05:26:28;21.85;;;12.18;;
49488;SDS011;35382;51.484;11.476;2023-04-02T05:28:20;18.85;;;11.05;;
49488;SDS011;35382;51.484;11.476;2023-04-02T05:30:31;20.92;;;11.20;;
49488;SDS011;35382;51.484;11.476;2023-04-02T05:32:29;19.02;;;12.02;;
49488;SDS011;35382;51.484;11.476;2023-04-02T05:34:14;19.25;;;11.80;;
49488;SDS011;35382;51.484;11.476;2023-04-02T05:36:08;18.63;;;11.68;;
49488;SDS011;35382;51.484;11.476;2023-04-02T05:37:59;23.08;;;11.73;;
49488;SDS011;35382;51.484;11.476;2023-04-02T05:39:44;23.42;;;12.55;;
49488;SDS011;35382;51.484;11.476;2023-04-02T05:41:33;21.05;;;11.65;;
49488;SDS011;35382;51.484;11.476;2023-04-02T05:43:19;20.73;;;12.45;;
49488;SDS011;35382;51.484;11.476;2023-04-02T05:47:03;21.13;;;12.35;;
49488;SDS011;35382;51.484;11.476;2023-04-02T05:48:49;22.60;;;13.23;;
49488;SDS011;35382;51.484;11.476;2023-04-02T05:50:36;22.13;;;13.23;;
49488;SDS011;35382;51.484;11.476;2023-04-02T05:52:28;21.45;;;12.55;;
49488;SDS011;35382;51.484;11.476;2023-04-02T05:54:18;23.23;;;13.00;;
49488;SDS011;35382;51.484;11.476;2023-04-02T05:56:17;22.85;;;13.65;;
49488;SDS011;35382;51.484;11.476;2023-04-02T05:58:05;22.27;;;13.73;;
49488;SDS011;35382;51.484;11.476;2023-04-02T05:59:57;21.55;;;14.68;;
49488;SDS011;35382;51.484;11.476;2023-04-02T06:01:54;23.13;;;14.30;;
49488;SDS011;35382;51.484;11.476;2023-04-02T06:03:54;24.88;;;13.85;;
49488;SDS011;35382;51.484;11.476;2023-04-02T06:05:46;22.50;;;14.80;;
49488;SDS011;35382;51.484;11.476;2023-04-02T06:07:32;25.67;;;14.85;;
49488;SDS011;35382;51.484;11.476;2023-04-02T06:09:29;31.38;;;17.15;;
49488;SDS011;35382;51.484;11.476;2023-04-02T06:11:19;22.08;;;12.95;;
49488;SDS011;35382;51.484;11.476;2023-04-02T06:13:06;23.77;;;14.82;;
49488;SDS011;35382;51.484;11.476;2023-04-02T06:14:52;22.10;;;14.25;;
49488;SDS011;35382;51.484;11.476;2023-04-02T06:16:34;24.52;;;15.57;;
49488;SDS011;35382;51.484;11.476;2023-04-02T06:18:22;23.63;;;14.27;;
49488;SDS011;35382;51.484;11.476;2023-04-02T06:20:05;26.92;;;14.65;;
49488;SDS011;35382;51.484;11.476;2023-04-02T06:21:50;25.15;;;14.32;;
49488;SDS011;35382;51.484;11.476;2023-04-02T06:25:42;18.73;;;13.10;;
49488;SDS011;35382;51.484;11.476;2023-04-02T06:27:27;21.35;;;12.65;;
49488;SDS011;35382;51.484;11.476;2023-04-02T06:29:29;49.42;;;22.48;;
49488;SDS011;35382;51.484;11.476;2023-04-02T06:33:13;21.38;;;12.73;;
49488;SDS011;35382;51.484;11.476;2023-04-02T06:34:58;18.40;;;12.27;;
49488;SDS011;35382;51.484;11.476;2023-04-02T06:36:39;18.75;;;12.80;;
49488;SDS011;35382;51.484;11.476;2023-04-02T06:38:24;19.92;;;13.98;;
49488;SDS011;35382;51.484;11.476;2023-04-02T06:40:58;20.88;;;14.27;;
49488;SDS011;35382;51.484;11.476;2023-04-02T06:42:25;22.55;;;13.30;;
49488;SDS011;35382;51.484;11.476;2023-04-02T06:44:24;17.73;;;11.77;;
49488;SDS011;35382;51.484;11.476;2023-04-02T06:46:42;18.45;;;11.82;;
49488;SDS011;35382;51.484;11.476;2023-04-02T06:48:28;19.10;;;13.70;;
49488;SDS011;35382;51.484;11.476;2023-04-02T06:50:14;19.83;;;13.07;;
49488;SDS011;35382;51.484;11.476;2023-04-02T06:52:02;17.75;;;12.10;;
49488;SDS011;35382;51.484;11.476;2023-04-02T06:53:48;19.80;;;12.50;;
49488;SDS011;35382;51.484;11.476;2023-04-02T06:57:33;16.38;;;12.38;;
49488;SDS011;35382;51.484;11.476;2023-04-02T06:59:18;20.15;;;13.65;;
49488;SDS011;35382;51.484;11.476;2023-04-02T07:01:00;18.08;;;13.20;;
49488;SDS011;35382;51.484;11.476;2023-04-02T07:02:49;17.20;;;11.90;;
49488;SDS011;35382;51.484;11.476;2023-04-02T07:04:32;17.70;;;12.40;;
49488;SDS011;35382;51.484;11.476;2023-04-02T07:06:15;16.10;;;11.70;;
49488;SDS011;35382;51.484;11.476;2023-04-02T07:07:59;16.88;;;11.65;;
49488;SDS011;35382;51.484;11.476;2023-04-02T07:09:40;15.02;;;11.75;;
49488;SDS011;35382;51.484;11.476;2023-04-02T07:11:22;17.63;;;11.43;;
49488;SDS011;35382;51.484;11.476;2023-04-02T07:13:06;16.65;;;12.05;;
49488;SDS011;35382;51.484;11.476;2023-04-02T07:14:53;14.65;;;11.13;;
49488;SDS011;35382;51.484;11.476;2023-04-02T07:16:34;17.00;;;11.60;;
49488;SDS011;35382;51.484;11.476;2023-04-02T07:18:24;13.18;;;10.32;;
49488;SDS011;35382;51.484;11.476;2023-04-02T07:20:24;15.68;;;11.52;;
49488;SDS011;35382;51.484;11.476;2023-04-02T07:22:08;13.70;;;10.77;;
49488;SDS011;35382;51.484;11.476;2023-04-02T07:23:53;17.33;;;12.77;;
49488;SDS011;35382;51.484;11.476;2023-04-02T07:25:34;16.13;;;10.90;;
49488;SDS011;35382;51.484;11.476;2023-04-02T07:27:18;14.48;;;10.70;;
49488;SDS011;35382;51.484;11.476;2023-04-02T07:28:59;14.02;;;10.60;;
49488;SDS011;35382;51.484;11.476;2023-04-02T07:30:40;12.35;;;9.48;;
49488;SDS011;35382;51.484;11.476;2023-04-02T07:32:21;19.27;;;11.10;;
49488;SDS011;35382;51.484;11.476;2023-04-02T07:34:01;14.38;;;9.80;;
49488;SDS011;35382;51.484;11.476;2023-04-02T07:35:45;13.68;;;9.77;;
49488;SDS011;35382;51.484;11.476;2023-04-02T07:37:27;14.10;;;10.48;;
49488;SDS011;35382;51.484;11.476;2023-04-02T07:39:08;14.15;;;10.90;;
49488;SDS011;35382;51.484;11.476;2023-04-02T07:40:49;13.50;;;10.80;;
49488;SDS011;35382;51.484;11.476;2023-04-02T07:42:30;13.98;;;10.25;;
49488;SDS011;35382;51.484;11.476;2023-04-02T07:44:11;12.98;;;9.60;;
49488;SDS011;35382;51.484;11.476;2023-04-02T07:45:52;15.57;;;11.35;;
49488;SDS011;35382;51.484;11.476;2023-04-02T07:47:33;13.98;;;10.43;;
49488;SDS011;35382;51.484;11.476;2023-04-02T07:49:13;14.40;;;11.07;;
49488;SDS011;35382;51.484;11.476;2023-04-02T07:50:54;13.77;;;11.23;;
49488;SDS011;35382;51.484;11.476;2023-04-02T07:52:39;13.40;;;9.95;;
49488;SDS011;35382;51.484;11.476;2023-04-02T07:54:21;11.85;;;9.23;;
49488;SDS011;35382;51.484;11.476;2023-04-02T07:56:03;12.02;;;9.35;;
49488;SDS011;35382;51.484;11.476;2023-04-02T07:57:52;12.63;;;9.15;;
49488;SDS011;35382;51.484;11.476;2023-04-02T07:59:35;10.93;;;7.93;;
49488;SDS011;35382;51.484;11.476;2023-04-02T08:01:18;10.93;;;7.40;;
49488;SDS011;35382;51.484;11.476;2023-04-02T08:03:03;13.27;;;8.00;;
49488;SDS011;35382;51.484;11.476;2023-04-02T08:04:44;15.90;;;8.93;;
49488;SDS011;35382;51.484;11.476;2023-04-02T08:06:25;12.00;;;8.52;;
49488;SDS011;35382;51.484;11.476;2023-04-02T08:08:07;11.15;;;8.02;;
49488;SDS011;35382;51.484;11.476;2023-04-02T08:09:47;11.30;;;8.30;;
49488;SDS011;35382;51.484;11.476;2023-04-02T08:11:28;10.40;;;7.47;;
49488;SDS011;35382;51.484;11.476;2023-04-02T08:13:09;10.68;;;8.30;;
49488;SDS011;35382;51.484;11.476;2023-04-02T08:14:50;14.05;;;8.07;;
49488;SDS011;35382;51.484;11.476;2023-04-02T08:16:50;13.52;;;8.30;;
49488;SDS011;35382;51.484;11.476;2023-04-02T08:18:33;10.48;;;7.65;;
49488;SDS011;35382;51.484;11.476;2023-04-02T08:20:15;12.10;;;8.00;;
49488;SDS011;35382;51.484;11.476;2023-04-02T08:21:57;11.60;;;8.77;;
49488;SDS011;35382;51.484;11.476;2023-04-02T08:23:38;11.73;;;7.82;;
49488;SDS011;35382;51.484;11.476;2023-04-02T08:25:20;12.93;;;9.10;;
49488;SDS011;35382;51.484;11.476;2023-04-02T08:27:00;10.50;;;7.10;;
49488;SDS011;35382;51.484;11.476;2023-04-02T08:28:41;9.75;;;7.25;;
49488;SDS011;35382;51.484;11.476;2023-04-02T08:30:22;13.13;;;8.38;;
49488;SDS011;35382;51.484;11.476;2023-04-02T08:32:03;10.32;;;7.10;;
49488;SDS011;35382;51.484;11.476;2023-04-02T08:33:44;13.52;;;8.38;;
49488;SDS011;35382;51.484;11.476;2023-04-02T08:35:25;15.15;;;9.00;;
49488;SDS011;35382;51.484;11.476;2023-04-02T08:37:07;14.88;;;7.32;;
49488;SDS011;35382;51.484;11.476;2023-04-02T08:38:50;13.57;;;8.60;;
49488;SDS011;35382;51.484;11.476;2023-04-02T08:40:33;12.57;;;7.18;;
49488;SDS011;35382;51.484;11.476;2023-04-02T08:46:29;15.07;;;7.20;;
49488;SDS011;35382;51.484;11.476;2023-04-02T08:48:17;12.23;;;6.75;;
49488;SDS011;35382;51.484;11.476;2023-04-02T08:49:59;7.85;;;5.55;;
49488;SDS011;35382;51.484;11.476;2023-04-02T08:51:43;9.10;;;6.15;;
49488;SDS011;35382;51.484;11.476;2023-04-02T08:53:28;8.50;;;6.55;;
49488;SDS011;35382;51.484;11.476;2023-04-02T08:55:17;10.38;;;6.60;;
49488;SDS011;35382;51.484;11.476;2023-04-02T08:57:06;11.48;;;6.55;;
49488;SDS011;35382;51.484;11.476;2023-04-02T08:58:58;10.57;;;6.40;;
49488;SDS011;35382;51.484;11.476;2023-04-02T09:00:47;9.43;;;6.20;;
49488;SDS011;35382;51.484;11.476;2023-04-02T09:02:35;12.23;;;7.55;;
49488;SDS011;35382;51.484;11.476;2023-04-02T09:04:20;12.07;;;7.95;;
49488;SDS011;35382;51.484;11.476;2023-04-02T09:06:04;11.43;;;7.30;;
49488;SDS011;35382;51.484;11.476;2023-04-02T09:07:49;9.05;;;6.85;;
49488;SDS011;35382;51.484;11.476;2023-04-02T09:09:33;8.80;;;6.88;;
49488;SDS011;35382;51.484;11.476;2023-04-02T09:13:01;11.02;;;8.00;;
49488;SDS011;35382;51.484;11.476;2023-04-02T09:14:53;10.73;;;7.95;;
49488;SDS011;35382;51.484;11.476;2023-04-02T09:16:59;11.40;;;7.60;;
49488;SDS011;35382;51.484;11.476;2023-04-02T09:18:43;12.88;;;8.05;;
49488;SDS011;35382;51.484;11.476;2023-04-02T09:20:25;10.98;;;8.02;;
49488;SDS011;35382;51.484;11.476;2023-04-02T09:22:07;12.38;;;8.10;;
49488;SDS011;35382;51.484;11.476;2023-04-02T09:23:57;13.63;;;9.52;;
49488;SDS011;35382;51.484;11.476;2023-04-02T09:25:42;12.48;;;8.27;;
49488;SDS011;35382;51.484;11.476;2023-04-02T09:27:25;11.63;;;8.10;;
49488;SDS011;35382;51.484;11.476;2023-04-02T09:30:57;14.32;;;8.70;;
49488;SDS011;35382;51.484;11.476;2023-04-02T09:32:45;12.85;;;8.57;;
49488;SDS011;35382;51.484;11.476;2023-04-02T09:34:29;11.38;;;8.15;;
49488;SDS011;35382;51.484;11.476;2023-04-02T09:36:18;9.98;;;7.70;;
49488;SDS011;35382;51.484;11.476;2023-04-02T09:38:26;12.02;;;7.93;;
49488;SDS011;35382;51.484;11.476;2023-04-02T09:42:05;9.82;;;6.72;;
49488;SDS011;35382;51.484;11.476;2023-04-02T09:43:47;8.80;;;6.75;;
49488;SDS011;35382;51.484;11.476;2023-04-02T09:45:28;9.10;;;6.28;;
49488;SDS011;35382;51.484;11.476;2023-04-02T09:47:22;10.80;;;7.20;;
49488;SDS011;35382;51.484;11.476;2023-04-02T09:49:10;13.40;;;8.25;;
49488;SDS011;35382;51.484;11.476;2023-04-02T09:57:00;13.85;;;7.55;;
49488;SDS011;35382;51.484;11.476;2023-04-02T09:58:43;11.60;;;7.35;;
49488;SDS011;35382;51.484;11.476;2023-04-02T10:00:50;10.90;;;7.80;;
49488;SDS011;35382;51.484;11.476;2023-04-02T10:02:32;12.32;;;7.85;;
49488;SDS011;35382;51.484;11.476;2023-04-02T10:06:27;9.93;;;7.25;;
49488;SDS011;35382;51.484;11.476;2023-04-02T10:08:19;13.77;;;7.43;;
49488;SDS011;35382;51.484;11.476;2023-04-02T10:12:10;13.93;;;7.97;;
49488;SDS011;35382;51.484;11.476;2023-04-02T10:13:57;12.48;;;8.98;;
49488;SDS011;35382;51.484;11.476;2023-04-02T10:15:50;10.27;;;7.80;;
49488;SDS011;35382;51.484;11.476;2023-04-02T10:17:38;11.77;;;7.72;;
49488;SDS011;35382;51.484;11.476;2023-04-02T10:21:07;11.00;;;7.00;;
49488;SDS011;35382;51.484;11.476;2023-04-02T10:22:52;10.07;;;7.20;;
49488;SDS011;35382;51.484;11.476;2023-04-02T10:24:33;12.65;;;7.38;;
49488;SDS011;35382;51.484;11.476;2023-04-02T10:26:17;10.32;;;6.88;;
49488;SDS011;35382;51.484;11.476;2023-04-02T10:28:14;10.35;;;6.35;;
49488;SDS011;35382;51.484;11.476;2023-04-02T10:32:00;9.63;;;5.40;;
49488;SDS011;35382;51.484;11.476;2023-04-02T10:33:49;10.75;;;5.72;;
49488;SDS011;35382;51.484;11.476;2023-04-02T10:35:43;8.52;;;4.95;;
49488;SDS011;35382;51.484;11.476;2023-04-02T10:39:18;7.05;;;4.68;;
49488;SDS011;35382;51.484;11.476;2023-04-02T10:41:25;9.05;;;4.97;;
49488;SDS011;35382;51.484;11.476;2023-04-02T10:45:18;8.40;;;3.83;;
49488;SDS011;35382;51.484;11.476;2023-04-02T10:49:26;7.45;;;3.65;;
49488;SDS011;35382;51.484;11.476;2023-04-02T10:51:15;5.90;;;3.15;;
49488;SDS011;35382;51.484;11.476;2023-04-02T10:54:44;5.80;;;3.38;;
49488;SDS011;35382;51.484;11.476;2023-04-02T10:56:30;5.82;;;3.35;;
49488;SDS011;35382;51.484;11.476;2023-04-02T10:58:25;11.27;;;3.75;;
49488;SDS011;35382;51.484;11.476;2023-04-02T11:01:55;6.25;;;3.80;;
49488;SDS011;35382;51.484;11.476;2023-04-02T11:03:51;9.75;;;3.53;;
49488;SDS011;35382;51.484;11.476;2023-04-02T11:05:52;7.63;;;3.85;;
49488;SDS011;35382;51.484;11.476;2023-04-02T11:07:41;5.97;;;3.38;;
49488;SDS011;35382;51.484;11.476;2023-04-02T11:09:32;5.38;;;3.40;;
49488;SDS011;35382;51.484;11.476;2023-04-02T11:11:22;5.93;;;3.13;;
49488;SDS011;35382;51.484;11.476;2023-04-02T11:14:57;5.68;;;3.00;;
49488;SDS011;35382;51.484;11.476;2023-04-02T11:16:39;5.47;;;2.60;;
49488;SDS011;35382;51.484;11.476;2023-04-02T11:18:22;7.32;;;3.10;;
49488;SDS011;35382;51.484;11.476;2023-04-02T11:22:25;9.10;;;3.60;;
49488;SDS011;35382;51.484;11.476;2023-04-02T11:26:28;5.43;;;3.38;;
49488;SDS011;35382;51.484;11.476;2023-04-02T11:28:28;5.75;;;3.00;;
49488;SDS011;35382;51.484;11.476;2023-04-02T11:30:21;9.43;;;3.67;;
49488;SDS011;35382;51.484;11.476;2023-04-02T11:34:01;5.70;;;2.53;;
49488;SDS011;35382;51.484;11.476;2023-04-02T11:35:42;7.82;;;3.05;;
49488;SDS011;35382;51.484;11.476;2023-04-02T11:37:39;6.68;;;3.25;;
49488;SDS011;35382;51.484;11.476;2023-04-02T11:40:06;8.25;;;3.17;;
49488;SDS011;35382;51.484;11.476;2023-04-02T11:44:04;7.10;;;3.20;;
49488;SDS011;35382;51.484;11.476;2023-04-02T11:47:42;8.88;;;3.58;;
49488;SDS011;35382;51.484;11.476;2023-04-02T11:53:29;5.38;;;2.85;;
49488;SDS011;35382;51.484;11.476;2023-04-02T11:57:14;8.38;;;3.22;;
49488;SDS011;35382;51.484;11.476;2023-04-02T12:01:17;6.75;;;3.40;;
49488;SDS011;35382;51.484;11.476;2023-04-02T12:05:18;5.13;;;2.30;;
49488;SDS011;35382;51.484;11.476;2023-04-02T12:07:24;6.80;;;3.13;;
49488;SDS011;35382;51.484;11.476;2023-04-02T12:09:26;5.43;;;2.60;;
49488;SDS011;35382;51.484;11.476;2023-04-02T12:11:10;3.92;;;2.10;;
49488;SDS011;35382;51.484;11.476;2023-04-02T12:12:51;5.25;;;2.50;;
49488;SDS011;35382;51.484;11.476;2023-04-02T12:16:16;5.15;;;2.30;;
49488;SDS011;35382;51.484;11.476;2023-04-02T12:18:04;7.55;;;2.50;;
49488;SDS011;35382;51.484;11.476;2023-04-02T12:19:53;5.07;;;2.13;;
49488;SDS011;35382;51.484;11.476;2023-04-02T12:21:39;6.53;;;2.47;;